Terminal Aerodrome Forecast
Issued by NWS

Home | Current Version | Previous Version | Text Only | Print | Product List | Glossary On
Versions: 1 2 3 4 5 6 7 8 9 10 11 12 13 14 15 16 17 18 19 20 21 22 23 24 25 26 27 28 29 30 31 32 33 34 35 36 37 38 39 40 41 42
999
FTAK31 PAFA 251135
TAFAQT
TAF
PAQT 251135Z 2512/2612 25030G45KT 1/4SM SN FZFG OVC005
     FM260000 25020G30KT 1/2SM BLSN OVC010
     FM260900 26015G25KT 1 1/2SM BLSN OVC010=

USA.gov is the U.S. government's official web portal to all federal, state and local government web resources and services.